createdAt,value
2022-08-26T00:04:38.699Z,19.6
2022-08-26T00:14:40.731Z,18.9
2022-08-26T00:34:44.190Z,19.2
2022-08-26T00:44:46.379Z,18.9
2022-08-26T00:54:48.209Z,18.8
2022-08-26T01:04:49.877Z,18.7
2022-08-26T01:14:52.380Z,18.9
2022-08-26T01:34:57.088Z,19.2
2022-08-26T01:55:02.218Z,18.6
2022-08-26T02:15:06.534Z,17.8
2022-08-26T02:35:10.480Z,17.4
2022-08-26T02:45:12.719Z,17.1
2022-08-26T02:55:14.679Z,17.4
2022-08-26T03:05:16.670Z,17.3
2022-08-26T03:15:18.638Z,16.5
2022-08-26T03:25:20.566Z,16.7
2022-08-26T03:35:22.475Z,16.6
2022-08-26T03:55:27.271Z,15.9
2022-08-26T04:15:32.094Z,16.9
2022-08-26T04:35:36.558Z,16.4
2022-08-26T04:55:42.789Z,17.2
2022-08-26T05:05:42.568Z,17.7
2022-08-26T05:15:45.295Z,18.2
2022-08-26T05:25:47.440Z,18.4
2022-08-26T05:35:49.455Z,18.7
2022-08-26T05:45:51.838Z,19.1
2022-08-26T05:55:53.490Z,19.3
2022-08-26T06:05:55.298Z,19.5
2022-08-26T06:15:57.722Z,19.7
2022-08-26T06:26:00.058Z,19.8
2022-08-26T06:26:06.961Z,19.8
2022-08-26T06:36:09.267Z,19.9
2022-08-26T06:46:11.883Z,20
2022-08-26T06:56:14.067Z,20.3
2022-08-26T07:06:16.085Z,20.4
2022-08-26T07:16:18.658Z,20.6
2022-08-26T07:26:20.415Z,20.8
2022-08-26T07:36:22.087Z,20.9
2022-08-26T07:46:27.359Z,20.9
2022-08-26T07:56:26.318Z,21.2
2022-08-26T08:06:28.103Z,21.2
2022-08-26T08:16:32.162Z,21.3
2022-08-26T08:26:31.750Z,21.1
2022-08-26T08:36:36.106Z,21.2
2022-08-26T08:46:36.042Z,21.4
2022-08-26T08:56:38.096Z,21.6
2022-08-26T09:06:40.973Z,21.2
2022-08-26T09:16:42.760Z,21.4
2022-08-26T09:26:44.429Z,21.4
2022-08-26T09:36:46.883Z,21.4
2022-08-26T09:46:49.033Z,21.4
2022-08-26T09:56:50.699Z,21.6
2022-08-26T10:06:52.643Z,22
2022-08-26T10:16:54.969Z,22
2022-08-26T10:26:57.452Z,22.2
2022-08-26T10:37:15.156Z,22.5
2022-08-26T10:57:04.803Z,22.4
2022-08-26T11:07:06.799Z,22.4
2022-08-26T11:17:09.052Z,23
2022-08-26T11:27:10.922Z,22.8
2022-08-26T11:37:12.728Z,23.3
2022-08-26T11:47:15.036Z,23.4
2022-08-26T11:57:17.306Z,23.3
2022-08-26T12:07:23.718Z,23.4
2022-08-26T12:17:22.434Z,23.3
2022-08-26T12:27:24.077Z,23.4
2022-08-26T12:37:25.923Z,23.3
2022-08-26T12:47:31.042Z,23.5
2022-08-26T12:57:30.023Z,23.8
2022-08-26T13:07:31.885Z,23.7
2022-08-26T13:17:34.114Z,23.6
2022-08-26T13:27:36.172Z,23.6
2022-08-26T13:37:38.469Z,23.7
2022-08-26T13:47:40.295Z,23.7
2022-08-26T14:07:45.087Z,23.3
2022-08-26T14:17:47.070Z,23.3
2022-08-26T14:27:49.462Z,23.3
2022-08-26T14:37:51.494Z,23.2
2022-08-26T14:47:54.012Z,23
2022-08-26T14:57:56.101Z,22.5
2022-08-26T15:07:58.321Z,22.7
2022-08-26T15:18:00.867Z,22.4
2022-08-26T15:28:03.243Z,22.4
2022-08-26T15:38:05.828Z,22.2
2022-08-26T15:48:07.929Z,21.8
2022-08-26T15:58:09.835Z,21.9
2022-08-26T16:08:12.052Z,21.8
2022-08-26T16:18:14.301Z,21.4
2022-08-26T16:28:16.808Z,21.2
2022-08-26T16:38:18.628Z,21
2022-08-26T16:48:20.344Z,21.2
2022-08-26T16:58:22.670Z,21.1
2022-08-26T17:08:27.524Z,21.1
2022-08-26T17:18:25.985Z,21
2022-08-26T17:28:27.658Z,20.9
2022-08-26T17:38:29.618Z,20.8
2022-08-26T17:48:31.735Z,20.8
2022-08-26T17:58:34.609Z,20.7
2022-08-26T18:08:36.362Z,20.7
2022-08-26T18:18:38.750Z,20.6
2022-08-26T18:38:42.794Z,20.5
2022-08-26T18:58:46.828Z,20.3
2022-08-26T19:08:49.870Z,20.2
2022-08-26T19:18:51.625Z,20.1
2022-08-26T19:38:55.800Z,19.8
2022-08-26T19:48:57.642Z,19.6
2022-08-26T19:58:59.916Z,19.5
2022-08-26T20:09:01.905Z,19.3
2022-08-26T20:19:04.233Z,19.3
2022-08-26T20:29:06.228Z,19.2
2022-08-26T20:39:08.755Z,19
2022-08-26T20:49:10.762Z,18.9
2022-08-26T20:59:12.478Z,18.6
2022-08-26T21:09:14.505Z,18.4
2022-08-26T21:19:16.698Z,18
2022-08-26T21:29:18.949Z,17.6
2022-08-26T21:39:21.348Z,17.4
2022-08-26T21:49:23.478Z,17.2
2022-08-26T21:59:25.356Z,17.1
2022-08-26T22:09:27.357Z,17
2022-08-26T22:19:29.054Z,16.9
2022-08-26T22:29:31.045Z,16.9
2022-08-26T22:39:33.264Z,16.8
2022-08-26T22:49:34.975Z,16.7
2022-08-26T22:59:36.905Z,16.7
2022-08-26T23:09:38.797Z,16.7
2022-08-26T23:19:40.714Z,16.6
2022-08-26T23:29:42.507Z,16.4
2022-08-26T23:39:44.426Z,16.4
2022-08-26T23:49:46.783Z,16.5
2022-08-26T23:59:48.458Z,16.5
